Castello d'Empuries, Spain
Current Conditions -  °F | °C
As of 1:30 PM on Friday 21 Nov 2014 (Local Time) from LEGE Reporting Station
Few Clouds Few Clouds  
Wind Chill: 68°   Ceiling: Unl
Heat Index: 68°   Visibility: 6mi
Dew Point: 55°   Wind: 7mph
Humidity: 64%   Direction: 210°SSW
Pressure: 30.09"   Gusts: NA
Location:  42.26°N, 3.07°E
Report Text: LEGE 211230Z 21006KT 160V270 9999 FEW025 20/13 Q1019
Loading
Personal Weather Stations






























Interactive Weather Map New forecast layout! Learn more

10-Day Weather Forecast

Advertisements
Track Severe Weather on mobile